Home > Products > Valid Products > TAF

000
FTUS44 KLIX 310933 AAB
TAFMCB
TAF AMD
KMCB 310933Z 3110/0106 VRB03KT 4SM BR SCT250
      TEMPO 3110/3113 1/4SM FG VV005
     FM311600 24010KT P6SM SCT035 BKN150
     FM010100 VRB03KT P6SM BKN150=



000
FTUS44 KLIX 310910 AAA
TAFMCB
TAF AMD
KMCB 310910Z 3109/0106 VRB03KT 4SM BR SCT250
      TEMPO 3109/3113 1SM BR VV006
     FM311600 24010KT P6SM SCT035 BKN150
     FM010100 VRB03KT P6SM BKN150=



000
FTUS44 KLIX 310531
TAFBTR
TAF
KBTR 310531Z 3106/0106 22006KT P6SM SCT250
     FM311000 VRB03KT 5SM BR SCT008
     FM311600 23010KT P6SM SCT040 BKN250
     FM010100 21005KT P6SM BKN250=



000
FTUS44 KLIX 310531
TAFGPT
TAF
KGPT 310531Z 3106/0106 24005KT P6SM SCT250
     FM311500 22010KT P6SM SCT030 BKN250
     FM010100 VRB03KT P6SM BKN250=



000
FTUS44 KLIX 310531
TAFNEW
TAF
KNEW 310531Z 3106/0106 23005KT P6SM SCT250
     FM311700 23010KT P6SM SCT030 BKN250=



000
FTUS44 KLIX 310531
TAFNEW
TAF
KNEW 310531Z 3106/0106 23005KT P6SM SCT250
     FM311700 23010KT P6SM SCT030 BKN250=



000
FTUS44 KLIX 310531
TAFMSY
TAF
KMSY 310531Z 3106/0106 23006KT P6SM SCT250
     FM311100 VRB03KT 5SM BR SCT008 BKN250
     FM311600 23010KT P6SM SCT040 BKN250
     FM010100 21005KT P6SM BKN250=



000
FTUS44 KLIX 310531
TAFMSY
TAF
KMSY 310531Z 3106/0106 23006KT P6SM SCT250
     FM311100 VRB03KT 5SM BR SCT008 BKN250
     FM311600 23010KT P6SM SCT040 BKN250
     FM010100 21005KT P6SM BKN250=



000
FTUS44 KLIX 310531
TAFNEW
TAF
KNEW 310531Z 3106/0106 23005KT P6SM SCT250
     FM311700 23010KT P6SM SCT030 BKN250=



000
FTUS44 KLIX 310531
TAFGPT
TAF
KGPT 310531Z 3106/0106 24005KT P6SM SCT250
     FM311500 22010KT P6SM SCT030 BKN250
     FM010100 VRB03KT P6SM BKN250=



000
FTUS44 KLIX 310531
TAFNEW
TAF
KNEW 310531Z 3106/0106 23005KT P6SM SCT250
     FM311700 23010KT P6SM SCT030 BKN250=



000
FTUS44 KLIX 310531
TAFMCB
TAF
KMCB 310531Z 3106/0106 VRB03KT P6SM BKN250
     FM311100 VRB03KT 5SM BR SCT250
      TEMPO 3111/3113 2SM BR SCT005
     FM311600 24010KT P6SM SCT035 BKN150
     FM010100 VRB03KT P6SM BKN150=



000
FTUS44 KLIX 310531
TAFBTR
TAF
KBTR 310531Z 3106/0106 22006KT P6SM SCT250
     FM311000 VRB03KT 5SM BR SCT008
     FM311600 23010KT P6SM SCT040 BKN250
     FM010100 21005KT P6SM BKN250=



000
FTUS44 KLIX 310531
TAFMCB
TAF
KMCB 310531Z 3106/0106 VRB03KT P6SM BKN250
     FM311100 VRB03KT 5SM BR SCT250
      TEMPO 3111/3113 2SM BR SCT005
     FM311600 24010KT P6SM SCT035 BKN150
     FM010100 VRB03KT P6SM BKN150=



000
FTUS44 KLIX 302320
TAFMSY
TAF
KMSY 302320Z 3100/3124 25010KT P6SM SCT045 SCT250
     FM310900 VRB03KT 5SM BR SCT008
     FM311500 22006KT P6SM BKN050=



000
FTUS44 KLIX 302320
TAFBTR
TAF
KBTR 302320Z 3100/3124 21011KT P6SM SCT070
     FM310100 VRB03KT P6SM SCT250
     FM310800 VRB03KT 4SM BR SCT008
     FM311500 23006KT P6SM BKN050=



000
FTUS44 KLIX 302320
TAFMCB
TAF
KMCB 302320Z 3100/3124 23009KT P6SM BKN060
     FM310100 VRB03KT P6SM BKN250
     FM310700 VRB03KT 3SM BR SCT005
     FM311600 24008KT P6SM BKN050=



000
FTUS44 KLIX 302320
TAFNEW
TAF
KNEW 302320Z 3100/3124 08003KT P6SM SCT050
     FM311000 22004KT 4SM BR SCT008
     FM311500 22006KT P6SM SCT250
     FM311900 24011KT P6SM BKN100=



000
FTUS44 KLIX 302320
TAFGPT
TAF
KGPT 302320Z 3100/3124 19010KT P6SM SKC
     FM310200 VRB03KT P6SM SCT250
     FM310900 VRB03KT 5SM BR SCT008
     FM311500 27004KT P6SM BKN250=



000
FTUS44 KLIX 302320
TAFNEW
TAF
KNEW 302320Z 3100/3124 08003KT P6SM SCT050
     FM311000 22004KT 4SM BR SCT008
     FM311500 22006KT P6SM SCT250
     FM311900 24011KT P6SM BKN100=



000
FTUS44 KLIX 302320
TAFNEW
TAF
KNEW 302320Z 3100/3124 08003KT P6SM SCT050
     FM311000 22004KT 4SM BR SCT008
     FM311500 22006KT P6SM SCT250
     FM311900 24011KT P6SM BKN100=



000
FTUS44 KLIX 302320
TAFGPT
TAF
KGPT 302320Z 3100/3124 19010KT P6SM SKC
     FM310200 VRB03KT P6SM SCT250
     FM310900 VRB03KT 5SM BR SCT008
     FM311500 27004KT P6SM BKN250=



000
FTUS44 KLIX 302320
TAFMSY
TAF
KMSY 302320Z 3100/3124 25010KT P6SM SCT045 SCT250
     FM310900 VRB03KT 5SM BR SCT008
     FM311500 22006KT P6SM BKN050=



000
FTUS44 KLIX 302320
TAFMCB
TAF
KMCB 302320Z 3100/3124 23009KT P6SM BKN060
     FM310100 VRB03KT P6SM BKN250
     FM310700 VRB03KT 3SM BR SCT005
     FM311600 24008KT P6SM BKN050=



000
FTUS44 KLIX 302320
TAFBTR
TAF
KBTR 302320Z 3100/3124 21011KT P6SM SCT070
     FM310100 VRB03KT P6SM SCT250
     FM310800 VRB03KT 4SM BR SCT008
     FM311500 23006KT P6SM BKN050=



000
FTUS44 KLIX 302320
TAFNEW
TAF
KNEW 302320Z 3100/3124 08003KT P6SM SCT050
     FM311000 22004KT 4SM BR SCT008
     FM311500 22006KT P6SM SCT250
     FM311900 24011KT P6SM BKN100=



000
FTUS44 KLIX 301736
TAFMSY
TAF
KMSY 301736Z 3018/3118 26012KT P6SM BKN035
     FM302200 21008KT P6SM BKN040
     FM310900 VRB03KT 5SM BR SCT008
     FM311500 21006KT P6SM BKN050=



000
FTUS44 KLIX 301736
TAFBTR
TAF
KBTR 301736Z 3018/3118 24008KT P6SM BKN030
     FM310100 VRB03KT P6SM SCT250
     FM310800 VRB03KT 5SM BR SCT008
     FM311500 23006KT P6SM BKN050=



000
FTUS44 KLIX 301736
TAFNEW
TAF
KNEW 301736Z 3018/3118 34007KT P6SM BKN035
     FM302200 22009KT P6SM BKN050
     FM311000 22006KT 4SM BR SCT008
     FM311500 22006KT P6SM SCT250=



000
FTUS44 KLIX 301736
TAFGPT
TAF
KGPT 301736Z 3018/3118 20008KT P6SM BKN035
     FM310200 VRB03KT P6SM SCT250
     FM310900 VRB03KT 5SM BR SCT008
     FM311500 27004KT P6SM BKN250=



000
FTUS44 KLIX 301736
TAFMCB
TAF
KMCB 301736Z 3018/3118 28008KT P6SM BKN040
     FM310100 VRB03KT P6SM BKN250
     FM310800 VRB03KT 4SM BR SCT005
     FM311600 26008KT P6SM BKN050=



000
FTUS44 KLIX 301736
TAFNEW
TAF
KNEW 301736Z 3018/3118 34007KT P6SM BKN035
     FM302200 22009KT P6SM BKN050
     FM311000 22006KT 4SM BR SCT008
     FM311500 22006KT P6SM SCT250=



000
FTUS44 KLIX 301736
TAFMCB
TAF
KMCB 301736Z 3018/3118 28008KT P6SM BKN040
     FM310100 VRB03KT P6SM BKN250
     FM310800 VRB03KT 4SM BR SCT005
     FM311600 26008KT P6SM BKN050=



000
FTUS44 KLIX 301736
TAFGPT
TAF
KGPT 301736Z 3018/3118 20008KT P6SM BKN035
     FM310200 VRB03KT P6SM SCT250
     FM310900 VRB03KT 5SM BR SCT008
     FM311500 27004KT P6SM BKN250=



000
FTUS44 KLIX 301736
TAFNEW
TAF
KNEW 301736Z 3018/3118 34007KT P6SM BKN035
     FM302200 22009KT P6SM BKN050
     FM311000 22006KT 4SM BR SCT008
     FM311500 22006KT P6SM SCT250=



000
FTUS44 KLIX 301736
TAFBTR
TAF
KBTR 301736Z 3018/3118 24008KT P6SM BKN030
     FM310100 VRB03KT P6SM SCT250
     FM310800 VRB03KT 5SM BR SCT008
     FM311500 23006KT P6SM BKN050=



000
FTUS44 KLIX 301736
TAFMSY
TAF
KMSY 301736Z 3018/3118 26012KT P6SM BKN035
     FM302200 21008KT P6SM BKN040
     FM310900 VRB03KT 5SM BR SCT008
     FM311500 21006KT P6SM BKN050=



000
FTUS44 KLIX 301736
TAFNEW
TAF
KNEW 301736Z 3018/3118 34007KT P6SM BKN035
     FM302200 22009KT P6SM BKN050
     FM311000 22006KT 4SM BR SCT008
     FM311500 22006KT P6SM SCT250=



000
FTUS44 KLIX 301258 AAB
TAFMCB
TAF AMD
KMCB 301258Z 3013/3112 VRB03KT P6SM SCT035
     FM301500 27007KT P6SM BKN040
     FM310100 VRB03KT P6SM BKN250
     FM311000 VRB03KT 4SM BR SCT250=



000
FTUS44 KLIX 301258 AAB
TAFMCB
TAF AMD
KMCB 301258Z 3013/3112 VRB03KT P6SM SCT035
     FM301500 27007KT P6SM BKN040
     FM310100 VRB03KT P6SM BKN250
     FM311000 VRB03KT 4SM BR SCT250=



000
FTUS44 KLIX 301218 AAA
TAFMCB
TAF AMD
KMCB 301218Z 3012/3112 VRB03KT P6SM BKN035
      TEMPO 3012/3014 1SM BR SKC
     FM301500 27007KT P6SM BKN040
     FM310100 VRB03KT P6SM BKN250
     FM311000 VRB03KT 4SM BR SCT250=



000
FTUS44 KLIX 301218 AAA
TAFMCB
TAF AMD
KMCB 301218Z 3012/3112 VRB03KT P6SM BKN035
      TEMPO 3012/3014 1SM BR SKC
     FM301500 27007KT P6SM BKN040
     FM310100 VRB03KT P6SM BKN250
     FM311000 VRB03KT 4SM BR SCT250=



000
FTUS44 KLIX 301130
TAFGPT
TAF
KGPT 301130Z 3012/3112 VRB03KT P6SM BKN040
     FM301500 24005KT P6SM BKN040
     FM310200 VRB03KT P6SM SCT250
     FM310900 VRB03KT 5SM BR BKN250=



000
FTUS44 KLIX 301130
TAFMCB
TAF
KMCB 301130Z 3012/3112 VRB03KT P6SM BKN035
     FM301500 27007KT P6SM BKN040
     FM310100 VRB03KT P6SM BKN250
     FM311000 VRB03KT 4SM BR SCT250=



000
FTUS44 KLIX 301130
TAFNEW
TAF
KNEW 301130Z 3012/3112 VRB03KT P6SM SCT040
     FM301600 24008KT P6SM BKN040
     FM310100 23005KT P6SM SCT250=



000
FTUS44 KLIX 301130
TAFMSY
TAF
KMSY 301130Z 3012/3112 26004KT P6SM SCT040
     FM301600 24008KT P6SM BKN040
     FM310100 23005KT P6SM SCT250=



000
FTUS44 KLIX 301130
TAFBTR
TAF
KBTR 301130Z 3012/3112 VRB03KT P6SM SCT040
     FM301600 24008KT P6SM BKN040
     FM310100 23005KT P6SM SCT250
     FM310800 VRB03KT 5SM BR BKN250=



000
FTUS44 KLIX 301130
TAFNEW
TAF
KNEW 301130Z 3012/3112 VRB03KT P6SM SCT040
     FM301600 24008KT P6SM BKN040
     FM310100 23005KT P6SM SCT250=



000
FTUS44 KLIX 301130
TAFMCB
TAF
KMCB 301130Z 3012/3112 VRB03KT P6SM BKN035
     FM301500 27007KT P6SM BKN040
     FM310100 VRB03KT P6SM BKN250
     FM311000 VRB03KT 4SM BR SCT250=



000
FTUS44 KLIX 301130
TAFGPT
TAF
KGPT 301130Z 3012/3112 VRB03KT P6SM BKN040
     FM301500 24005KT P6SM BKN040
     FM310200 VRB03KT P6SM SCT250
     FM310900 VRB03KT 5SM BR BKN250=



000
FTUS44 KLIX 301130
TAFMSY
TAF
KMSY 301130Z 3012/3112 26004KT P6SM SCT040
     FM301600 24008KT P6SM BKN040
     FM310100 23005KT P6SM SCT250=



000
FTUS44 KLIX 301130
TAFNEW
TAF
KNEW 301130Z 3012/3112 VRB03KT P6SM SCT040
     FM301600 24008KT P6SM BKN040
     FM310100 23005KT P6SM SCT250=



000
FTUS44 KLIX 301130
TAFBTR
TAF
KBTR 301130Z 3012/3112 VRB03KT P6SM SCT040
     FM301600 24008KT P6SM BKN040
     FM310100 23005KT P6SM SCT250
     FM310800 VRB03KT 5SM BR BKN250=



000
FTUS44 KLIX 301130
TAFNEW
TAF
KNEW 301130Z 3012/3112 VRB03KT P6SM SCT040
     FM301600 24008KT P6SM BKN040
     FM310100 23005KT P6SM SCT250=



000
FTUS44 KLIX 301004 AAA
TAFGPT
TAF AMD
KGPT 301004Z 3010/3106 VRB03KT P6SM BKN025
      TEMPO 3011/3013 5SM BR SCT025
     FM301400 26009KT P6SM SCT022 BKN030
     FM302000 23012KT P6SM VCTS BKN040CB BKN250
     FM310100 19008KT P6SM SCT035 BKN250=



000
FTUS44 KLIX 301004 AAA
TAFGPT
TAF AMD
KGPT 301004Z 3010/3106 VRB03KT P6SM BKN025
      TEMPO 3011/3013 5SM BR SCT025
     FM301400 26009KT P6SM SCT022 BKN030
     FM302000 23012KT P6SM VCTS BKN040CB BKN250
     FM310100 19008KT P6SM SCT035 BKN250=



000
FTUS44 KLIX 301003 AAA
TAFBTR
TAF AMD
KBTR 301003Z 3010/3106 VRB03KT P6SM BKN040
      TEMPO 3010/3013 2SM BR SCT020
     FM301400 26005KT P6SM SCT030
     FM301800 26007KT P6SM BKN035 BKN250
     FM302300 24008KT P6SM BKN040 BKN250=



000
FTUS44 KLIX 301003 AAA
TAFBTR
TAF AMD
KBTR 301003Z 3010/3106 VRB03KT P6SM BKN040
      TEMPO 3010/3013 2SM BR SCT020
     FM301400 26005KT P6SM SCT030
     FM301800 26007KT P6SM BKN035 BKN250
     FM302300 24008KT P6SM BKN040 BKN250=



000
FTUS44 KLIX 300522
TAFBTR
TAF
KBTR 300522Z 3006/3106 18006KT P6SM BKN040
     FM301000 VRB03KT 4SM BR SCT025
      TEMPO 3010/3013 2SM BR BKN020
     FM301400 26005KT P6SM SCT030
     FM301800 26007KT P6SM BKN035 BKN250
     FM302300 24008KT P6SM BKN040 BKN250=



000
FTUS44 KLIX 300522
TAFNEW
TAF
KNEW 300522Z 3006/3106 17007KT P6SM FEW040
     FM301000 VRB05KT P6SM SCT030
      TEMPO 3010/3014 BKN025
     FM301400 27005KT P6SM SCT016 BKN030
     FM302000 26008KT P6SM BKN035 BKN250
     FM310100 25012KT P6SM SCT030=



000
FTUS44 KLIX 300522
TAFMCB
TAF
KMCB 300522Z 3006/3106 20005KT P6SM SKC
     FM300900 VRB03KT 2SM BR FEW030
      TEMPO 3009/3013 1/2SM FG BKN009
     FM301330 27005KT P6SM BKN019
     FM301900 27011KT P6SM VCTS BKN020CB BKN250
     FM310100 VRB06KT P6SM BKN035 BKN250=



000
FTUS44 KLIX 300522
TAFMSY
TAF
KMSY 300522Z 3006/3106 VRB04KT P6SM FEW040
      TEMPO 3010/3014 BKN025
     FM301400 27005KT P6SM SCT016 BKN030
     FM302000 26008KT P6SM BKN035 BKN250
     FM310100 25012KT P6SM SCT030 BKN250=



000
FTUS44 KLIX 300522
TAFGPT
TAF
KGPT 300522Z 3006/3106 18007KT P6SM FEW030
     FM301000 VRB03KT 5SM BR SCT025
     FM301400 26009KT P6SM SCT022 BKN030
     FM302000 23012KT P6SM VCTS BKN040CB BKN250
     FM310100 19008KT P6SM SCT035 BKN250=



000
FTUS44 KLIX 300522
TAFNEW
TAF
KNEW 300522Z 3006/3106 17007KT P6SM FEW040
     FM301000 VRB05KT P6SM SCT030
      TEMPO 3010/3014 BKN025
     FM301400 27005KT P6SM SCT016 BKN030
     FM302000 26008KT P6SM BKN035 BKN250
     FM310100 25012KT P6SM SCT030=



000
FTUS44 KLIX 300522
TAFMSY
TAF
KMSY 300522Z 3006/3106 VRB04KT P6SM FEW040
      TEMPO 3010/3014 BKN025
     FM301400 27005KT P6SM SCT016 BKN030
     FM302000 26008KT P6SM BKN035 BKN250
     FM310100 25012KT P6SM SCT030 BKN250=



000
FTUS44 KLIX 300522
TAFNEW
TAF
KNEW 300522Z 3006/3106 17007KT P6SM FEW040
     FM301000 VRB05KT P6SM SCT030
      TEMPO 3010/3014 BKN025
     FM301400 27005KT P6SM SCT016 BKN030
     FM302000 26008KT P6SM BKN035 BKN250
     FM310100 25012KT P6SM SCT030=



000
FTUS44 KLIX 300522
TAFMCB
TAF
KMCB 300522Z 3006/3106 20005KT P6SM SKC
     FM300900 VRB03KT 2SM BR FEW030
      TEMPO 3009/3013 1/2SM FG BKN009
     FM301330 27005KT P6SM BKN019
     FM301900 27011KT P6SM VCTS BKN020CB BKN250
     FM310100 VRB06KT P6SM BKN035 BKN250=



000
FTUS44 KLIX 300522
TAFBTR
TAF
KBTR 300522Z 3006/3106 18006KT P6SM BKN040
     FM301000 VRB03KT 4SM BR SCT025
      TEMPO 3010/3013 2SM BR BKN020
     FM301400 26005KT P6SM SCT030
     FM301800 26007KT P6SM BKN035 BKN250
     FM302300 24008KT P6SM BKN040 BKN250=



000
FTUS44 KLIX 300522
TAFGPT
TAF
KGPT 300522Z 3006/3106 18007KT P6SM FEW030
     FM301000 VRB03KT 5SM BR SCT025
     FM301400 26009KT P6SM SCT022 BKN030
     FM302000 23012KT P6SM VCTS BKN040CB BKN250
     FM310100 19008KT P6SM SCT035 BKN250=



000
FTUS44 KLIX 300522
TAFNEW
TAF
KNEW 300522Z 3006/3106 17007KT P6SM FEW040
     FM301000 VRB05KT P6SM SCT030
      TEMPO 3010/3014 BKN025
     FM301400 27005KT P6SM SCT016 BKN030
     FM302000 26008KT P6SM BKN035 BKN250
     FM310100 25012KT P6SM SCT030=



000
FTUS44 KLIX 292336
TAFNEW
TAF
KNEW 292336Z 3000/3024 13012KT P6SM SKC
     FM300500 19008KT P6SM FEW040
     FM301000 23005KT P6SM BKN030
     FM301400 VRB05KT P6SM SCT016 BKN035
     FM301900 27005KT P6SM VCTS BKN028CB=



000
FTUS44 KLIX 292336
TAFMSY
TAF
KMSY 292336Z 3000/3024 16012KT P6SM FEW040 SCT060
     FM300500 19008KT P6SM FEW040
     FM301000 23005KT P6SM BKN030
     FM301400 VRB05KT P6SM SCT016 BKN035
     FM301900 27005KT P6SM VCTS BKN028CB=



000
FTUS44 KLIX 292336
TAFGPT
TAF
KGPT 292336Z 3000/3024 14011KT P6SM BKN025
     FM300200 18005KT P6SM FEW030
     FM301000 VRB03KT 5SM BR SCT030
     FM301400 26006KT P6SM BKN030
     FM301900 25012KT P6SM VCTS BKN040CB=



000
FTUS44 KLIX 292336
TAFBTR
TAF
KBTR 292336Z 3000/3024 19011KT P6SM BKN050
     FM300200 18006KT P6SM FEW025
     FM301000 VRB03KT 4SM BR SCT025
      TEMPO 3010/3013 2SM BR BKN020
     FM301400 26005KT P6SM SCT030
     FM301800 26008KT P6SM BKN035 BKN250=



000
FTUS44 KLIX 292336
TAFMCB
TAF
KMCB 292336Z 3000/3024 17010KT P6SM FEW050 SCT060
     FM300300 19005KT P6SM SKC
     FM300900 VRB03KT 2SM BR SCT030
      TEMPO 3009/3013 1/2SM FG BKN009
     FM301330 27005KT P6SM BKN020
     FM301800 27011KT P6SM VCTS BKN020CB=



000
FTUS44 KLIX 292336
TAFMSY
TAF
KMSY 292336Z 3000/3024 16012KT P6SM FEW040 SCT060
     FM300500 19008KT P6SM FEW040
     FM301000 23005KT P6SM BKN030
     FM301400 VRB05KT P6SM SCT016 BKN035
     FM301900 27005KT P6SM VCTS BKN028CB=



000
FTUS44 KLIX 292336
TAFNEW
TAF
KNEW 292336Z 3000/3024 13012KT P6SM SKC
     FM300500 19008KT P6SM FEW040
     FM301000 23005KT P6SM BKN030
     FM301400 VRB05KT P6SM SCT016 BKN035
     FM301900 27005KT P6SM VCTS BKN028CB=



000
FTUS44 KLIX 292336
TAFMCB
TAF
KMCB 292336Z 3000/3024 17010KT P6SM FEW050 SCT060
     FM300300 19005KT P6SM SKC
     FM300900 VRB03KT 2SM BR SCT030
      TEMPO 3009/3013 1/2SM FG BKN009
     FM301330 27005KT P6SM BKN020
     FM301800 27011KT P6SM VCTS BKN020CB=



000
FTUS44 KLIX 292336
TAFBTR
TAF
KBTR 292336Z 3000/3024 19011KT P6SM BKN050
     FM300200 18006KT P6SM FEW025
     FM301000 VRB03KT 4SM BR SCT025
      TEMPO 3010/3013 2SM BR BKN020
     FM301400 26005KT P6SM SCT030
     FM301800 26008KT P6SM BKN035 BKN250=



000
FTUS44 KLIX 292336
TAFGPT
TAF
KGPT 292336Z 3000/3024 14011KT P6SM BKN025
     FM300200 18005KT P6SM FEW030
     FM301000 VRB03KT 5SM BR SCT030
     FM301400 26006KT P6SM BKN030
     FM301900 25012KT P6SM VCTS BKN040CB=



000
FTUS44 KLIX 292336
TAFNEW
TAF
KNEW 292336Z 3000/3024 13012KT P6SM SKC
     FM300500 19008KT P6SM FEW040
     FM301000 23005KT P6SM BKN030
     FM301400 VRB05KT P6SM SCT016 BKN035
     FM301900 27005KT P6SM VCTS BKN028CB=



000
FTUS44 KLIX 291724
TAFMSY
TAF
KMSY 291724Z 2918/3018 14012G16KT P6SM FEW035
     FM300200 19005KT P6SM SCT250
     FM301000 20004KT 5SM BR SCT030=



000
FTUS44 KLIX 291724
TAFNEW
TAF
KNEW 291724Z 2918/3018 13012KT P6SM SKC
     FM291900 16012KT P6SM SCT035
     FM300100 17006KT P6SM SCT250
     FM301100 22004KT P6SM SCT030=



000
FTUS44 KLIX 291724
TAFGPT
TAF
KGPT 291724Z 2918/3018 13014KT P6SM FEW040
     FM300400 15005KT P6SM SCT030=



000
FTUS44 KLIX 291724
TAFBTR
TAF
KBTR 291724Z 2918/3018 12008KT P6SM BKN035
     FM292200 18005KT P6SM FEW250
     FM301000 VRB03KT 4SM BR SCT015
     FM301600 24005KT P6SM BKN050=



000
FTUS44 KLIX 291724
TAFMSY
TAF
KMSY 291724Z 2918/3018 14012G16KT P6SM FEW035
     FM300200 19005KT P6SM SCT250
     FM301000 20004KT 5SM BR SCT030=



000
FTUS44 KLIX 291724
TAFGPT
TAF
KGPT 291724Z 2918/3018 13014KT P6SM FEW040
     FM300400 15005KT P6SM SCT030=



000
FTUS44 KLIX 291724
TAFNEW
TAF
KNEW 291724Z 2918/3018 13012KT P6SM SKC
     FM291900 16012KT P6SM SCT035
     FM300100 17006KT P6SM SCT250
     FM301100 22004KT P6SM SCT030=



000
FTUS44 KLIX 291724
TAFBTR
TAF
KBTR 291724Z 2918/3018 12008KT P6SM BKN035
     FM292200 18005KT P6SM FEW250
     FM301000 VRB03KT 4SM BR SCT015
     FM301600 24005KT P6SM BKN050=



000
FTUS44 KLIX 291724
TAFMCB
TAF
KMCB 291724Z 2918/3018 18010G16KT P6SM BKN030
     FM300100 18005KT P6SM SCT250
     FM300900 VRB03KT 2SM BR BKN250=



000
FTUS44 KLIX 291724
TAFMCB
TAF
KMCB 291724Z 2918/3018 18010G16KT P6SM BKN030
     FM300100 18005KT P6SM SCT250
     FM300900 VRB03KT 2SM BR BKN250=



000
FTUS44 KLIX 291724
TAFNEW
TAF
KNEW 291724Z 2918/3018 13012KT P6SM SKC
     FM291900 16012KT P6SM SCT035
     FM300100 17006KT P6SM SCT250
     FM301100 22004KT P6SM SCT030=



000
FTUS44 KLIX 291724
TAFNEW
TAF
KNEW 291724Z 2918/3018 13012KT P6SM SKC
     FM291900 16012KT P6SM SCT035
     FM300100 17006KT P6SM SCT250
     FM301100 22004KT P6SM SCT030=



000
FTUS44 KLIX 291124
TAFMCB
TAF
KMCB 291124Z 2912/3012 VRB04KT P6SM SCT030
     FM291700 18010KT P6SM SCT035
     FM300000 19006KT P6SM SCT045
     FM300100 18005KT P6SM SCT250
     FM300900 VRB03KT 2SM BR BKN250=



000
FTUS44 KLIX 291124
TAFNEW
TAF
KNEW 291124Z 2912/3012 09010KT P6SM SCT035
     FM291900 16010KT P6SM SCT035
     FM300100 17006KT P6SM SCT250
     FM301100 22004KT P6SM SCT030=



000
FTUS44 KLIX 291124
TAFMSY
TAF
KMSY 291124Z 2912/3012 09006KT P6SM SCT040
     FM291800 17010KT P6SM SCT035
     FM300200 19005KT P6SM SCT250=



000
FTUS44 KLIX 291124
TAFBTR
TAF
KBTR 291124Z 2912/3012 09004KT P6SM SCT025
     FM291700 18010KT P6SM SCT035
     FM300300 18005KT P6SM FEW250
     FM301100 VRB03KT 4SM BR SCT030=



000
FTUS44 KLIX 291124
TAFMCB
TAF
KMCB 291124Z 2912/3012 VRB04KT P6SM SCT030
     FM291700 18010KT P6SM SCT035
     FM300000 19006KT P6SM SCT045
     FM300100 18005KT P6SM SCT250
     FM300900 VRB03KT 2SM BR BKN250=



000
FTUS44 KLIX 291124
TAFGPT
TAF
KGPT 291124Z 2912/3012 09005KT P6SM SCT035
     FM291700 15010KT P6SM SCT035
     FM300400 15005KT P6SM SCT030=



000
FTUS44 KLIX 291124
TAFMSY
TAF
KMSY 291124Z 2912/3012 09006KT P6SM SCT040
     FM291800 17010KT P6SM SCT035
     FM300200 19005KT P6SM SCT250=



000
FTUS44 KLIX 291124
TAFBTR
TAF
KBTR 291124Z 2912/3012 09004KT P6SM SCT025
     FM291700 18010KT P6SM SCT035
     FM300300 18005KT P6SM FEW250
     FM301100 VRB03KT 4SM BR SCT030=



000
FTUS44 KLIX 291124
TAFGPT
TAF
KGPT 291124Z 2912/3012 09005KT P6SM SCT035
     FM291700 15010KT P6SM SCT035
     FM300400 15005KT P6SM SCT030=



000
FTUS44 KLIX 291124
TAFNEW
TAF
KNEW 291124Z 2912/3012 09010KT P6SM SCT035
     FM291900 16010KT P6SM SCT035
     FM300100 17006KT P6SM SCT250
     FM301100 22004KT P6SM SCT030=



000
FTUS44 KLIX 291124
TAFNEW
TAF
KNEW 291124Z 2912/3012 09010KT P6SM SCT035
     FM291900 16010KT P6SM SCT035
     FM300100 17006KT P6SM SCT250
     FM301100 22004KT P6SM SCT030=



000
FTUS44 KLIX 291124
TAFNEW
TAF
KNEW 291124Z 2912/3012 09010KT P6SM SCT035
     FM291900 16010KT P6SM SCT035
     FM300100 17006KT P6SM SCT250
     FM301100 22004KT P6SM SCT030=



000
FTUS44 KLIX 290930 AAA
TAFNEW
TAF AMD
KNEW 290930Z 2910/3006 14006KT P6SM BKN035
     FM291700 17011KT P6SM SCT035
     FM300100 16011KT P6SM FEW250=



000
FTUS44 KLIX 290930 AAA
TAFNEW
TAF AMD
KNEW 290930Z 2910/3006 14006KT P6SM BKN035
     FM291700 17011KT P6SM SCT035
     FM300100 16011KT P6SM FEW250=



000
FTUS44 KLIX 290929 AAA
TAFMSY
TAF AMD
KMSY 290929Z 2909/3006 VRB04KT P6SM BKN035
     FM291700 17010KT P6SM SCT035
     FM300000 19010KT P6SM FEW250=



000
FTUS44 KLIX 290910 AAC
TAFMCB
TAF AMD
KMCB 290910Z 2909/3006 09006KT P6SM OVC015
     FM291600 15007KT P6SM SCT025
     FM291900 18010KT P6SM SCT250
     FM300100 19005KT P6SM FEW250=



000
FTUS44 KLIX 290700 AAB
TAFMCB
TAF AMD
KMCB 290700Z 2907/3006 09006KT P6SM SCT025
     FM291500 15007KT P6SM SCT250
     FM291900 18010KT P6SM SCT250
     FM300100 19005KT P6SM FEW250=



000
FTUS44 KLIX 290614 AAA
TAFMCB
TAF AMD
KMCB 290614Z 2906/3006 09006KT P6SM BKN028
     FM291500 15007KT P6SM SCT250
     FM291900 18010KT P6SM SCT250
     FM300100 19005KT P6SM FEW250=



000
FTUS44 KLIX 290614 AAA
TAFMCB
TAF AMD
KMCB 290614Z 2906/3006 09006KT P6SM BKN028
     FM291500 15007KT P6SM SCT250
     FM291900 18010KT P6SM SCT250
     FM300100 19005KT P6SM FEW250=



000
FTUS44 KLIX 290521
TAFBTR
TAF
KBTR 290521Z 2906/3006 VRB04KT P6SM SCT250
     FM291700 18010KT P6SM SCT250
     FM300500 18004KT P6SM FEW250=



000
FTUS44 KLIX 290521
TAFNEW
TAF
KNEW 290521Z 2906/3006 14006KT P6SM FEW250
     FM291700 17011KT P6SM SCT035
     FM300100 16011KT P6SM FEW250=



000
FTUS44 KLIX 290521
TAFGPT
TAF
KGPT 290521Z 2906/3006 VRB03KT P6SM SCT250
     FM291400 12010KT P6SM SCT250
     FM291800 17011KT P6SM SCT035
     FM300300 18008KT P6SM SCT250=



000
FTUS44 KLIX 290521
TAFNEW
TAF
KNEW 290521Z 2906/3006 14006KT P6SM FEW250
     FM291700 17011KT P6SM SCT035
     FM300100 16011KT P6SM FEW250=



000
FTUS44 KLIX 290521
TAFMSY
TAF
KMSY 290521Z 2906/3006 14009KT P6SM FEW250
     FM291700 17010KT P6SM SCT035
     FM300000 19010KT P6SM FEW250=



000
FTUS44 KLIX 290521
TAFMCB
TAF
KMCB 290521Z 2906/3006 09006KT P6SM SCT250
     FM291500 15007KT P6SM SCT250
     FM291900 18010KT P6SM SCT250
     FM300100 19005KT P6SM FEW250=



000
FTUS44 KLIX 290521
TAFBTR
TAF
KBTR 290521Z 2906/3006 VRB04KT P6SM SCT250
     FM291700 18010KT P6SM SCT250
     FM300500 18004KT P6SM FEW250=



000
FTUS44 KLIX 290521
TAFMCB
TAF
KMCB 290521Z 2906/3006 09006KT P6SM SCT250
     FM291500 15007KT P6SM SCT250
     FM291900 18010KT P6SM SCT250
     FM300100 19005KT P6SM FEW250=



000
FTUS44 KLIX 290521
TAFNEW
TAF
KNEW 290521Z 2906/3006 14006KT P6SM FEW250
     FM291700 17011KT P6SM SCT035
     FM300100 16011KT P6SM FEW250=



000
FTUS44 KLIX 290521
TAFNEW
TAF
KNEW 290521Z 2906/3006 14006KT P6SM FEW250
     FM291700 17011KT P6SM SCT035
     FM300100 16011KT P6SM FEW250=



000
FTUS44 KLIX 290521
TAFMSY
TAF
KMSY 290521Z 2906/3006 14009KT P6SM FEW250
     FM291700 17010KT P6SM SCT035
     FM300000 19010KT P6SM FEW250=



000
FTUS44 KLIX 290521
TAFGPT
TAF
KGPT 290521Z 2906/3006 VRB03KT P6SM SCT250
     FM291400 12010KT P6SM SCT250
     FM291800 17011KT P6SM SCT035
     FM300300 18008KT P6SM SCT250=



000
FTUS44 KLIX 282340
TAFNEW
TAF
KNEW 282340Z 2900/2924 12011KT P6SM SKC
     FM290200 16007KT P6SM SKC
     FM291600 17012KT P6SM SCT040=



000
FTUS44 KLIX 282340
TAFNEW
TAF
KNEW 282340Z 2900/2924 12011KT P6SM SKC
     FM290200 16007KT P6SM SKC
     FM291600 17012KT P6SM SCT040=



000
FTUS44 KLIX 282340
TAFBTR
TAF
KBTR 282340Z 2900/2924 16010KT P6SM SKC
     FM290100 16004KT P6SM SKC
     FM291600 15007KT P6SM SCT250=



000
FTUS44 KLIX 282340
TAFMSY
TAF
KMSY 282340Z 2900/2924 19011KT P6SM FEW250
     FM290200 16007KT P6SM SKC
     FM291600 17012KT P6SM SCT040=



000
FTUS44 KLIX 282340
TAFGPT
TAF
KGPT 282340Z 2900/2924 17007KT P6SM FEW250
     FM290400 VRB06KT P6SM SKC
     FM291500 15009KT P6SM FEW035=



000
FTUS44 KLIX 282340
TAFMCB
TAF
KMCB 282340Z 2900/2924 VRB04KT P6SM BKN050
     FM291300 12005KT P6SM SKC
     FM291700 18007KT P6SM SCT040 SCT250=



000
FTUS44 KLIX 282340
TAFGPT
TAF
KGPT 282340Z 2900/2924 17007KT P6SM FEW250
     FM290400 VRB06KT P6SM SKC
     FM291500 15009KT P6SM FEW035=



000
FTUS44 KLIX 282340
TAFBTR
TAF
KBTR 282340Z 2900/2924 16010KT P6SM SKC
     FM290100 16004KT P6SM SKC
     FM291600 15007KT P6SM SCT250=



000
FTUS44 KLIX 282340
TAFMCB
TAF
KMCB 282340Z 2900/2924 VRB04KT P6SM BKN050
     FM291300 12005KT P6SM SKC
     FM291700 18007KT P6SM SCT040 SCT250=



000
FTUS44 KLIX 282340
TAFMSY
TAF
KMSY 282340Z 2900/2924 19011KT P6SM FEW250
     FM290200 16007KT P6SM SKC
     FM291600 17012KT P6SM SCT040=



000
FTUS44 KLIX 282340
TAFNEW
TAF
KNEW 282340Z 2900/2924 12011KT P6SM SKC
     FM290200 16007KT P6SM SKC
     FM291600 17012KT P6SM SCT040=



000
FTUS44 KLIX 282340
TAFNEW
TAF
KNEW 282340Z 2900/2924 12011KT P6SM SKC
     FM290200 16007KT P6SM SKC
     FM291600 17012KT P6SM SCT040=



000
FTUS44 KLIX 281727
TAFMSY
TAF
KMSY 281727Z 2818/2918 16006KT P6SM FEW250
     FM282300 16007KT P6SM SCT250=



000
FTUS44 KLIX 281727
TAFGPT
TAF
KGPT 281727Z 2818/2918 14006KT P6SM FEW050
     FM290900 10006KT P6SM SCT250
     FM291400 12005KT P6SM SCT250=



000
FTUS44 KLIX 281727
TAFNEW
TAF
KNEW 281727Z 2818/2918 10007KT P6SM SKC
     FM282300 14008KT P6SM SCT250=



000
FTUS44 KLIX 281727
TAFBTR
TAF
KBTR 281727Z 2818/2918 17004KT P6SM SCT050
     FM291600 15007KT P6SM SCT250=



000
FTUS44 KLIX 281727
TAFMCB
TAF
KMCB 281727Z 2818/2918 VRB04KT P6SM BKN050
     FM291300 12005KT P6SM SCT150
     FM291700 18007KT P6SM SCT250=



000
FTUS44 KLIX 281727
TAFBTR
TAF
KBTR 281727Z 2818/2918 17004KT P6SM SCT050
     FM291600 15007KT P6SM SCT250=



000
FTUS44 KLIX 281727
TAFMCB
TAF
KMCB 281727Z 2818/2918 VRB04KT P6SM BKN050
     FM291300 12005KT P6SM SCT150
     FM291700 18007KT P6SM SCT250=



000
FTUS44 KLIX 281727
TAFNEW
TAF
KNEW 281727Z 2818/2918 10007KT P6SM SKC
     FM282300 14008KT P6SM SCT250=



000
FTUS44 KLIX 281727
TAFGPT
TAF
KGPT 281727Z 2818/2918 14006KT P6SM FEW050
     FM290900 10006KT P6SM SCT250
     FM291400 12005KT P6SM SCT250=



000
FTUS44 KLIX 281727
TAFNEW
TAF
KNEW 281727Z 2818/2918 10007KT P6SM SKC
     FM282300 14008KT P6SM SCT250=



000
FTUS44 KLIX 281727
TAFMSY
TAF
KMSY 281727Z 2818/2918 16006KT P6SM FEW250
     FM282300 16007KT P6SM SCT250=



000
FTUS44 KLIX 281727
TAFNEW
TAF
KNEW 281727Z 2818/2918 10007KT P6SM SKC
     FM282300 14008KT P6SM SCT250=



000
FTUS44 KLIX 281126
TAFNEW
TAF
KNEW 281126Z 2812/2912 07010KT P6SM SCT250
     FM282000 14005KT P6SM SCT250
     FM290500 12008KT P6SM SCT040 BKN250=



000
FTUS44 KLIX 281126
TAFNEW
TAF
KNEW 281126Z 2812/2912 07010KT P6SM SCT250
     FM282000 14005KT P6SM SCT250
     FM290500 12008KT P6SM SCT040 BKN250=



000
FTUS44 KLIX 281126
TAFMCB
TAF
KMCB 281126Z 2812/2912 VRB03KT P6SM SCT250
     FM290600 12005KT P6SM BKN050=



000
FTUS44 KLIX 281126
TAFMSY
TAF
KMSY 281126Z 2812/2912 VRB04KT P6SM SCT250
     FM281700 14008KT P6SM SCT250
     FM290100 13005KT P6SM BKN250=



000
FTUS44 KLIX 281126
TAFBTR
TAF
KBTR 281126Z 2812/2912 VRB04KT P6SM SCT250
     FM281800 17005KT P6SM SCT250
     FM290600 13004KT P6SM BKN250=



000
FTUS44 KLIX 281126
TAFGPT
TAF
KGPT 281126Z 2812/2912 VRB03KT P6SM FEW250
     FM281700 16008KT P6SM SCT250
     FM290300 11005KT P6SM SCT050 BKN250=



    US Dept of Commerce
    National Oceanic and Atmospheric Administration
    National Weather Service
    1325 East West Highway
    Silver Spring, MD 20910
    Page Author: NWS Internet Services Team
Disclaimer
Information Quality
Credits
Glossary
Privacy Policy
Freedom of Information Act (FOIA)
About Us
Career Opportunities